createdAt,value
2018-11-22T12:17:13.325Z,7.95
2018-11-22T12:19:42.114Z,7.97
2018-11-22T12:22:10.842Z,8.00
2018-11-22T12:24:39.569Z,8.03
2018-11-22T12:27:08.328Z,8.06
2018-11-22T12:29:37.683Z,8.07
2018-11-22T12:32:11.824Z,8.11
2018-11-22T12:34:45.772Z,8.16
2018-11-22T12:37:19.639Z,8.22
2018-11-22T12:39:48.440Z,8.26
2018-11-22T12:42:17.239Z,8.31
2018-11-22T12:44:46.892Z,8.38
2018-11-22T12:47:15.732Z,8.45
2018-11-22T12:49:45.604Z,8.49
2018-11-22T12:52:14.320Z,8.55
2018-11-22T12:54:42.987Z,8.52
2018-11-22T12:57:11.640Z,8.51
2018-11-22T12:59:40.390Z,8.52
2018-11-22T13:02:09.081Z,8.54
2018-11-22T13:04:37.754Z,8.57
2018-11-22T13:07:06.454Z,8.49
2018-11-22T13:09:35.088Z,8.41
2018-11-22T13:12:03.855Z,8.41
2018-11-22T13:14:32.571Z,8.43
2018-11-22T13:17:01.255Z,8.49
2018-11-22T13:19:29.893Z,8.57
2018-11-22T13:21:58.774Z,8.62
2018-11-22T13:24:27.682Z,8.58
2018-11-22T13:26:57.524Z,8.44
2018-11-22T13:29:26.230Z,8.34
2018-11-22T13:31:55.013Z,8.29
2018-11-22T13:34:23.961Z,8.30
2018-11-22T13:36:52.628Z,8.34
2018-11-22T13:39:21.292Z,8.42
2018-11-22T13:41:50.206Z,8.47
2018-11-22T13:44:19.212Z,8.50
2018-11-22T13:46:48.141Z,8.52
2018-11-22T13:49:17.168Z,8.57
2018-11-22T13:51:46.167Z,8.63
2018-11-22T13:54:15.499Z,8.65
2018-11-22T13:56:44.678Z,8.66
2018-11-22T13:59:13.562Z,8.68
2018-11-22T14:01:42.503Z,8.67
2018-11-22T14:04:11.339Z,8.65
2018-11-22T14:06:40.182Z,8.64
2018-11-22T14:09:10.290Z,8.62
2018-11-22T14:11:39.198Z,8.59
2018-11-22T14:14:08.582Z,8.60
2018-11-22T14:16:37.371Z,8.60
2018-11-22T14:19:06.316Z,8.56
2018-11-22T14:21:35.240Z,8.54
2018-11-22T14:24:04.168Z,8.48
2018-11-22T14:26:32.921Z,8.42
2018-11-22T14:29:01.852Z,8.36
2018-11-22T14:31:30.705Z,8.32
2018-11-22T14:33:59.326Z,8.26
2018-11-22T14:36:28.380Z,8.21
2018-11-22T14:38:57.006Z,8.15
2018-11-22T14:41:25.618Z,8.05
2018-11-22T14:43:54.462Z,7.96
2018-11-22T14:46:24.437Z,7.88
2018-11-22T14:48:53.991Z,7.79
2018-11-22T14:51:27.771Z,7.70
2018-11-22T14:53:56.659Z,7.61
2018-11-22T14:56:26.099Z,7.56
2018-11-22T14:58:55.161Z,7.48
2018-11-22T15:01:24.254Z,7.42
2018-11-22T15:03:53.254Z,7.35
2018-11-22T15:06:22.650Z,7.32
2018-11-22T15:08:51.788Z,7.27
2018-11-22T15:11:20.730Z,7.22
2018-11-22T15:13:49.623Z,7.19
2018-11-22T15:16:18.516Z,7.16
2018-11-22T15:18:47.551Z,7.14
2018-11-22T15:21:16.458Z,7.12
2018-11-22T15:23:45.423Z,7.09
2018-11-22T15:26:14.334Z,7.08
2018-11-22T15:28:43.239Z,7.07
2018-11-22T15:31:11.879Z,7.04
2018-11-22T15:33:40.546Z,7.03
2018-11-22T15:36:10.066Z,7.00
2018-11-22T15:38:38.738Z,6.98
2018-11-22T15:41:07.533Z,6.97
2018-11-22T15:43:37.162Z,6.94
2018-11-22T15:46:05.881Z,6.91
2018-11-22T15:48:34.498Z,6.90
2018-11-22T15:51:03.114Z,6.87
2018-11-22T15:53:31.718Z,6.85
2018-11-22T15:56:00.319Z,6.84
2018-11-22T15:58:28.913Z,6.82
2018-11-22T16:00:57.520Z,6.81
2018-11-22T16:03:26.125Z,6.78
2018-11-22T16:05:54.735Z,6.78
2018-11-22T16:08:23.346Z,6.79
2018-11-22T16:10:51.970Z,6.79
2018-11-22T16:13:20.629Z,6.79
2018-11-22T16:15:50.956Z,6.77
2018-11-22T16:18:19.554Z,6.78
2018-11-22T16:20:48.201Z,6.77
2018-11-22T16:23:16.909Z,6.77
2018-11-22T16:25:45.558Z,6.78
2018-11-22T16:28:14.268Z,6.78
2018-11-22T16:30:44.049Z,6.78
2018-11-22T16:33:12.934Z,6.77
2018-11-22T16:35:42.331Z,6.78
2018-11-22T16:38:10.831Z,6.77
2018-11-22T16:40:39.827Z,6.77
2018-11-22T16:43:08.671Z,6.78
2018-11-22T16:45:38.574Z,6.78
2018-11-22T16:48:09.310Z,6.76
2018-11-22T16:50:39.192Z,6.76
2018-11-22T16:53:09.252Z,6.75
2018-11-22T16:55:38.282Z,6.74
2018-11-22T16:58:08.366Z,6.74
2018-11-22T17:00:38.647Z,6.72
2018-11-22T17:03:10.447Z,6.73
2018-11-22T17:05:39.695Z,6.73
2018-11-22T17:08:09.733Z,6.72
2018-11-22T17:10:40.183Z,6.71
2018-11-22T17:13:09.204Z,6.71
2018-11-22T17:15:39.222Z,6.72
2018-11-22T17:18:09.225Z,6.72
2018-11-22T17:20:38.248Z,6.74
2018-11-22T17:23:07.687Z,6.72
2018-11-22T17:25:38.165Z,6.72
2018-11-22T17:28:08.280Z,6.72
2018-11-22T17:30:38.589Z,6.71
2018-11-22T17:33:07.291Z,6.71
2018-11-22T17:35:36.010Z,6.72
2018-11-22T17:38:06.038Z,6.73
2018-11-22T17:40:37.250Z,6.75
2018-11-22T17:43:06.362Z,6.77
2018-11-22T17:45:39.223Z,6.77
2018-11-22T17:48:08.304Z,6.79
2018-11-22T17:50:38.855Z,6.80
2018-11-22T17:53:08.322Z,6.79
2018-11-22T17:55:37.159Z,6.79
2018-11-22T17:58:06.181Z,6.79
2018-11-22T18:00:36.591Z,6.78
2018-11-22T18:03:06.042Z,6.77
2018-11-22T18:05:35.099Z,6.77
2018-11-22T18:08:04.035Z,6.74
2018-11-22T18:10:34.467Z,6.73
2018-11-22T18:13:03.489Z,6.71
2018-11-22T18:15:35.638Z,6.69
2018-11-22T18:18:04.402Z,6.67
2018-11-22T18:20:37.493Z,6.65
2018-11-22T18:23:11.259Z,6.64
2018-11-22T18:25:35.592Z,6.61
2018-11-22T18:28:04.528Z,6.59
2018-11-22T18:30:34.124Z,6.58
2018-11-22T18:33:07.358Z,6.55
2018-11-22T18:35:36.315Z,6.54
2018-11-22T18:38:05.427Z,6.52
2018-11-22T18:40:36.118Z,6.51
2018-11-22T18:43:05.317Z,6.49
2018-11-22T18:45:35.445Z,6.48
2018-11-22T18:48:05.053Z,6.45
2018-11-22T18:50:34.768Z,6.43
2018-11-22T18:53:03.558Z,6.40
2018-11-22T18:55:32.574Z,6.38
2018-11-22T18:58:01.978Z,6.36
2018-11-22T19:00:32.730Z,6.35
2018-11-22T19:03:03.118Z,6.35
2018-11-22T19:05:33.266Z,6.35
2018-11-22T19:08:02.404Z,6.33
2018-11-22T19:10:33.065Z,6.32
2018-11-22T19:13:03.159Z,6.32
2018-11-22T19:15:33.624Z,6.29
2018-11-22T19:18:02.669Z,6.28
2018-11-22T19:20:33.453Z,6.25
2018-11-22T19:23:03.213Z,6.22
2018-11-22T19:25:32.201Z,6.20
2018-11-22T19:28:01.846Z,6.17
2018-11-22T19:30:37.386Z,6.15
2018-11-22T19:33:03.688Z,6.11
2018-11-22T19:35:34.121Z,6.09
2018-11-22T19:38:03.044Z,6.07
2018-11-22T19:40:33.384Z,6.05
2018-11-22T19:43:03.941Z,6.04
2018-11-22T19:45:34.422Z,6.03
2018-11-22T19:48:03.105Z,6.02
2018-11-22T19:50:32.230Z,6.01
2018-11-22T19:53:02.312Z,6.02
2018-11-22T19:55:32.339Z,6.02
2018-11-22T19:58:02.548Z,6.03
2018-11-22T20:00:31.530Z,6.05
2018-11-22T20:03:01.599Z,6.04
2018-11-22T20:05:31.549Z,6.06
2018-11-22T20:08:01.670Z,6.07
2018-11-22T20:10:31.768Z,6.07
2018-11-22T20:13:00.721Z,6.08
2018-11-22T20:15:29.894Z,6.08
2018-11-22T20:17:59.488Z,6.09
2018-11-22T20:20:28.466Z,6.10
2018-11-22T20:22:57.865Z,6.10
2018-11-22T20:25:26.928Z,6.12
2018-11-22T20:27:56.501Z,6.12
2018-11-22T20:30:29.705Z,6.12
2018-11-22T20:32:59.050Z,6.14
2018-11-22T20:35:28.115Z,6.14
2018-11-22T20:37:56.949Z,6.15
2018-11-22T20:40:26.775Z,6.16
2018-11-22T20:42:55.609Z,6.17
2018-11-22T20:45:25.358Z,6.17
2018-11-22T20:47:56.126Z,6.18
2018-11-22T20:50:26.237Z,6.20
2018-11-22T20:52:55.178Z,6.19
2018-11-22T20:55:25.343Z,6.21
2018-11-22T20:57:57.381Z,6.21
2018-11-22T21:00:27.757Z,6.22
2018-11-22T21:02:56.681Z,6.23
2018-11-22T21:05:32.102Z,6.23
2018-11-22T21:08:00.978Z,6.24
2018-11-22T21:10:31.197Z,6.24
2018-11-22T21:13:00.139Z,6.25
2018-11-22T21:15:30.390Z,6.26
2018-11-22T21:18:00.802Z,6.27
2018-11-22T21:20:31.345Z,6.28
2018-11-22T21:25:36.962Z,6.31
2018-11-22T21:28:06.110Z,6.33
2018-11-22T21:30:37.507Z,6.33
2018-11-22T21:33:06.562Z,6.32
2018-11-22T21:35:35.847Z,6.33
2018-11-22T21:38:06.075Z,6.34
2018-11-22T21:40:35.426Z,6.34
2018-11-22T21:43:04.572Z,6.34
2018-11-22T21:45:34.338Z,6.35
2018-11-22T21:48:03.285Z,6.35
2018-11-22T21:50:32.195Z,6.36
2018-11-22T21:53:01.318Z,6.38
2018-11-22T21:55:30.719Z,6.38
2018-11-22T21:58:00.784Z,6.40
2018-11-22T22:00:32.491Z,6.40
2018-11-22T22:03:02.838Z,6.42
2018-11-22T22:05:31.706Z,6.41
2018-11-22T22:08:00.622Z,6.40
2018-11-22T22:10:29.567Z,6.38
2018-11-22T22:12:58.502Z,6.39
2018-11-22T22:15:28.513Z,6.37
2018-11-22T22:17:57.198Z,6.37
2018-11-22T22:20:27.330Z,6.37
2018-11-22T22:22:56.109Z,6.38
2018-11-22T22:25:25.691Z,6.40
2018-11-22T22:27:54.784Z,6.42
2018-11-22T22:30:29.849Z,6.43
2018-11-22T22:32:59.987Z,6.45
2018-11-22T22:35:28.590Z,6.48
2018-11-22T22:37:57.309Z,6.48
2018-11-22T22:40:27.280Z,6.51
2018-11-22T22:42:56.766Z,6.52
2018-11-22T22:45:26.453Z,6.53
2018-11-22T22:47:55.226Z,6.53
2018-11-22T22:50:25.066Z,6.53
2018-11-22T22:52:57.692Z,6.54
2018-11-22T22:55:26.574Z,6.54
2018-11-22T22:57:55.182Z,6.56
2018-11-22T23:00:29.830Z,6.58
2018-11-22T23:02:59.747Z,6.60
2018-11-22T23:05:28.980Z,6.61
2018-11-22T23:07:57.577Z,6.61
2018-11-22T23:10:26.366Z,6.61
2018-11-22T23:12:55.667Z,6.62
2018-11-22T23:15:24.813Z,6.63
2018-11-22T23:17:53.447Z,6.63
2018-11-22T23:20:24.492Z,6.65
2018-11-22T23:22:53.284Z,6.66
2018-11-22T23:25:22.905Z,6.67
2018-11-22T23:27:51.491Z,6.68
2018-11-22T23:30:22.321Z,6.68
2018-11-22T23:32:52.150Z,6.69
2018-11-22T23:35:20.978Z,6.69
2018-11-22T23:37:49.850Z,6.70
2018-11-22T23:40:22.158Z,6.70
2018-11-22T23:42:50.809Z,6.69
2018-11-22T23:45:20.635Z,6.70
2018-11-22T23:47:49.580Z,6.70
2018-11-22T23:50:19.569Z,6.70
2018-11-22T23:52:49.353Z,6.70
2018-11-22T23:55:17.943Z,6.70
2018-11-22T23:57:46.674Z,6.68
